Latest Weather Observations for Lajamanu

IDD60801

Issued at 4:35 pm CST Tuesday 21 October 2014 (issued every 30 minutes, with the page automatically refreshed every 10 minutes)

About weather observations | Map of weather stations | Latest weather observations for NT | Other Formats
Station Details ID: 014829 Name: LAJAMANU AIRPORT Lat: -18.33 Lon: 130.64 Height: 315.6 m
Data from the previous 72 hours. | See also: Recent months at Lajamanu
Date/Time
CST
Temp
°C
App
Temp
°C
Dew
Point
Rel
Hum
%
Delta-T
°C
Wind Press
QNH
hPa
Press
MSL
hPa
Rain
since 9 am
mm
Dir
 
Spd
km/h
Gust
km/h
Spd
kts
Gust
kts
21/04:30pm 37.0 32.6 2.9 12 18.1 E 15 28 8 15 1012.6 1010.5 0.0
21/04:00pm 37.6 33.5 2.1 11 18.7 SSE 13 20 7 11 1012.6 1010.5 0.0
21/03:30pm 38.5 34.3 1.5 10 19.4 ESE 13 30 7 16 1012.6 1010.5 0.0
21/03:00pm 38.0 32.4 1.1 10 19.1 E 20 46 11 25 1013.1 1010.9 0.0
21/02:30pm 38.9 33.2 0.3 9 19.9 E 20 26 11 14 1013.4 1011.2 0.0
21/02:00pm 38.2 33.0 -0.2 9 19.5 SE 17 32 9 17 1013.9 1011.7 0.0
21/01:30pm 37.5 32.8 0.7 10 18.9 E 15 30 8 16 1014.6 1012.4 0.0
21/01:00pm 38.0 32.4 1.1 10 19.1 ENE 20 43 11 23 1015.1 1013.0 0.0
21/12:30pm 37.8 32.2 1.0 10 19.0 E 20 35 11 19 1015.7 1013.6 0.0
21/12:02pm 37.8 30.6 1.0 10 19.0 NE 28 46 15 25 1016.3 1014.1 0.0
21/12:00pm 37.6 30.8 0.8 10 18.9 NE 26 46 14 25 1016.3 1014.1 0.0
21/11:59am 37.1 29.9 0.4 10 18.7 NE 28 46 15 25 1016.3 1014.1 0.0
21/11:30am 36.4 29.7 1.2 11 18.1 ENE 26 43 14 23 1016.7 1014.5 0.0
21/11:00am 36.1 30.9 3.3 13 17.4 NE 20 33 11 18 1017.0 1014.8 0.0
21/10:30am 34.9 29.1 2.4 13 16.9 NNE 22 30 12 16 1017.3 1015.1 0.0
21/10:00am 34.0 29.4 3.7 15 16.0 NNE 17 28 9 15 1017.5 1015.3 0.0
21/09:30am 31.9 27.3 3.8 17 14.7 NNE 17 24 9 13 1017.5 1015.3 0.0
21/09:00am 31.2 26.3 4.9 19 13.9 NNE 20 30 11 16 1017.6 1015.4 0.0
21/08:30am 29.4 24.4 3.4 19 13.3 NE 19 28 10 15 1017.3 1015.1 0.0
21/08:00am 28.0 23.0 1.5 18 13.0 ENE 17 26 9 14 1017.0 1014.8 0.0
21/07:30am 27.0 22.1 2.1 20 12.3 ENE 17 24 9 13 1016.7 1014.5 0.0
21/07:00am 22.1 19.6 4.6 32 8.7 E 7 13 4 7 1015.8 1013.7 0.0
21/06:30am 21.0 18.1 2.8 30 8.7 E 7 9 4 5 1015.3 1013.2 0.0
21/06:00am 22.1 18.5 2.8 28 9.3 ENE 11 13 6 7 1014.8 1012.6 0.0
21/05:30am 23.0 19.0 3.0 27 9.7 ENE 13 15 7 8 1014.5 1012.3 0.0
21/05:00am 23.5 19.6 3.4 27 9.9 ENE 13 15 7 8 1014.3 1012.1 0.0
21/04:30am 20.0 18.3 6.0 40 7.1 NE 4 6 2 3 1014.4 1012.2 0.0
21/04:00am 22.3 19.4 4.4 31 8.9 ENE 9 11 5 6 1014.3 1012.1 0.0
21/03:30am 22.4 19.3 5.4 33 8.6 ENE 11 11 6 6 1014.2 1012.0 0.0
21/03:00am 22.5 19.4 5.4 33 8.7 E 11 13 6 7 1014.2 1012.0 0.0
21/02:30am 22.7 19.6 5.6 33 8.7 E 11 13 6 7 1014.3 1012.1 0.0
21/02:00am 22.6 20.4 6.0 34 8.5 ESE 7 9 4 5 1014.4 1012.2 0.0
21/01:30am 23.5 20.9 5.9 32 9.1 ESE 9 9 5 5 1014.6 1012.4 0.0
21/01:00am 24.0 21.3 5.8 31 9.4 E 9 11 5 6 1014.8 1012.6 0.0
21/12:30am 24.9 22.4 6.6 31 9.6 E 9 11 5 6 1014.9 1012.7 0.0
21/12:00am 24.8 22.6 6.1 30 9.8 E 7 9 4 5 1015.1 1013.0 0.0
 
Date/Time
CST
Temp
°C
App
Temp
°C
Dew
Point
Rel
Hum
%
Delta-T
°C
Wind Press
QNH
hPa
Press
MSL
hPa
Rain
since 9 am
mm
Dir
 
Spd
km/h
Gust
km/h
Spd
kts
Gust
kts
20/11:30pm 26.0 23.1 6.6 29 10.3 E 11 13 6 7 1015.4 1013.3 0.0
20/11:00pm 26.4 23.6 6.9 29 10.4 E 11 13 6 7 1015.5 1013.4 0.0
20/10:30pm 26.4 24.0 6.9 29 10.4 E 9 11 5 6 1015.4 1013.3 0.0
20/10:00pm 27.2 24.4 7.1 28 10.8 E 11 11 6 6 1015.4 1013.3 0.0
20/09:30pm 28.3 25.4 6.4 25 11.7 E 11 13 6 7 1015.2 1013.1 0.0
20/09:00pm 29.8 26.7 7.1 24 12.4 E 13 17 7 9 1014.9 1012.7 0.0
20/08:30pm 30.4 27.2 7.0 23 12.8 E 13 17 7 9 1014.6 1012.4 0.0
20/08:00pm 31.3 28.0 6.4 21 13.5 E 13 17 7 9 1014.2 1012.0 0.0
20/07:30pm 32.2 28.4 5.7 19 14.3 ESE 15 20 8 11 1013.9 1011.7 0.0
20/07:00pm 33.2 29.6 3.1 15 15.7 ESE 11 15 6 8 1013.4 1011.2 0.0
20/06:30pm 35.1 31.1 2.6 13 17.0 SE 13 17 7 9 1013.0 1010.8 0.0
20/06:00pm 36.2 31.0 2.3 12 17.7 ESE 19 22 10 12 1012.5 1010.4 0.0
20/05:30pm 37.0 33.2 1.7 11 18.4 SSE 11 20 6 11 1012.2 1010.1 0.0
20/05:00pm 37.4 31.9 2.0 11 18.6 SE 20 30 11 16 1012.2 1010.1 0.0
20/04:30pm 37.4 33.8 0.7 10 18.9 ENE 9 13 5 7 1012.2 1010.1 0.0
20/04:00pm 37.3 32.9 0.6 10 18.8 SSE 13 22 7 12 1012.4 1010.3 0.0
20/03:30pm 38.5 33.5 1.5 10 19.4 SE 17 30 9 16 1012.4 1010.3 0.0
20/03:00pm 38.3 33.3 1.3 10 19.3 ESE 17 32 9 17 1012.9 1010.7 0.0
20/02:30pm 38.1 33.4 1.2 10 19.2 ESE 15 32 8 17 1013.3 1011.1 0.0
20/02:00pm 37.3 32.8 1.9 11 18.5 E 15 19 8 10 1013.9 1011.7 0.0
20/01:30pm 37.3 31.4 1.9 11 18.5 NNE 22 30 12 16 1014.4 1012.2 0.0
20/01:00pm 35.7 30.4 1.9 12 17.5 E 19 37 10 20 1015.1 1013.0 0.0
20/12:30pm 36.7 32.9 3.8 13 17.7 ENE 13 20 7 11 1015.6 1013.5 0.0
20/12:00pm 35.7 30.8 4.1 14 16.9 NNE 19 33 10 18 1016.3 1014.1 0.0
20/11:30am 35.3 30.3 4.8 15 16.5 N 20 30 11 16 1016.6 1014.4 0.0
20/11:00am 34.6 30.1 6.0 17 15.7 N 19 30 10 16 1016.9 1014.7 0.0
20/10:30am 33.7 28.8 6.9 19 14.9 N 22 33 12 18 1017.3 1015.1 0.0
20/10:00am 32.7 27.5 5.3 18 14.7 N 22 35 12 19 1017.3 1015.1 0.0
20/09:30am 31.4 26.4 6.5 21 13.6 N 22 32 12 17 1017.4 1015.2 0.0
20/09:00am 30.4 25.0 6.3 22 13.0 N 24 33 13 18 1017.5 1015.3 0.0
20/08:30am 28.8 24.5 6.8 25 11.9 N 19 24 10 13 1017.3 1015.1 0.0
20/08:00am 25.0 24.0 5.7 29 10.0 CALM 0 0 0 0 1017.2 1015.0 0.0
20/07:30am 22.3 21.1 4.8 32 8.8 CALM 0 0 0 0 1016.6 1014.4 0.0
20/07:00am 19.5 18.0 5.2 39 7.1 SSW 2 6 1 3 1016.2 1014.0 0.0
20/06:30am 18.0 16.7 3.9 39 6.7 CALM 0 0 0 0 1015.6 1013.5 0.0
20/06:00am 18.4 17.0 3.5 37 7.1 CALM 0 0 0 0 1015.3 1013.2 0.0
20/05:30am 18.7 17.3 3.3 36 7.3 CALM 0 0 0 0 1015.1 1013.0 0.0
20/05:00am 19.0 17.1 2.8 34 7.6 NW 2 7 1 4 1014.6 1012.4 0.0
20/04:30am 19.6 18.1 2.9 33 7.9 CALM 0 0 0 0 1014.3 1012.1 0.0
20/04:00am 22.2 18.9 4.3 31 8.9 NE 11 13 6 7 1014.1 1011.9 0.0
20/03:30am 20.2 18.3 3.0 32 8.2 ENE 2 7 1 4 1013.9 1011.7 0.0
20/03:00am 22.5 19.3 3.1 28 9.4 ENE 9 11 5 6 1013.8 1011.6 0.0
20/02:30am 23.1 19.9 3.1 27 9.8 E 9 13 5 7 1013.9 1011.7 0.0
20/02:00am 22.8 19.6 2.8 27 9.7 E 9 11 5 6 1014.0 1011.8 0.0
20/01:30am 22.8 19.2 2.8 27 9.7 E 11 13 6 7 1014.2 1012.0 0.0
20/01:00am 22.8 19.9 2.8 27 9.7 ESE 7 9 4 5 1014.4 1012.2 0.0
20/12:30am 23.3 20.4 2.7 26 10.0 ENE 7 9 4 5 1014.7 1012.5 0.0
20/12:00am 25.3 21.8 3.3 24 10.9 ENE 11 11 6 6 1014.9 1012.7 0.0
 
Date/Time
CST
Temp
°C
App
Temp
°C
Dew
Point
Rel
Hum
%
Delta-T
°C
Wind Press
QNH
hPa
Press
MSL
hPa
Rain
since 9 am
mm
Dir
 
Spd
km/h
Gust
km/h
Spd
kts
Gust
kts
19/11:30pm 24.8 21.6 2.9 24 10.8 E 9 11 5 6 1015.0 1012.9 0.0
19/11:00pm 25.0 21.2 1.8 22 11.2 E 11 13 6 7 1015.1 1013.0 0.0
19/10:30pm 26.1 22.4 2.1 21 11.7 E 11 13 6 7 1015.2 1013.1 0.0
19/10:00pm 27.1 23.3 1.5 19 12.5 ENE 11 13 6 7 1014.9 1012.7 0.0
19/09:30pm 27.5 23.2 1.1 18 12.8 E 13 15 7 8 1014.6 1012.4 0.0
19/09:00pm 27.6 23.6 0.4 17 13.1 E 11 13 6 7 1014.4 1012.2 0.0
19/08:30pm 28.4 24.2 -0.7 15 13.8 E 11 15 6 8 1014.0 1011.8 0.0
19/08:00pm 29.0 24.8 -1.2 14 14.2 E 11 13 6 7 1013.7 1011.5 0.0
19/07:30pm 29.9 26.0 -1.5 13 14.8 E 9 9 5 5 1013.3 1011.1 0.0
19/07:00pm 32.5 28.2 -1.7 11 16.4 E 11 15 6 8 1012.8 1010.6 0.0
19/06:30pm 34.8 30.9 -1.3 10 17.7 ENE 9 13 5 7 1012.4 1010.3 0.0
19/06:00pm 36.2 30.4 -1.7 9 18.6 ENE 19 26 10 14 1012.1 1010.0 0.0
19/05:30pm 36.8 32.4 0.2 10 18.6 NNE 13 20 7 11 1011.9 1009.7 0.0
19/05:00pm 37.0 31.5 0.4 10 18.7 NE 19 28 10 15 1011.8 1009.6 0.0
19/04:30pm 37.5 33.9 0.7 10 18.9 ESE 9 20 5 11 1011.7 1009.5 0.0
19/04:00pm 37.7 33.5 -0.6 9 19.3 ENE 11 20 6 11 1011.9 1009.7 0.0
19/03:30pm 37.4 33.6 -0.8 9 19.2 ENE 9 22 5 12 1012.2 1010.1 0.0
19/03:00pm 38.1 33.2 -0.3 9 19.5 ENE 15 33 8 18 1012.5 1010.4 0.0
19/02:30pm 36.8 32.4 0.2 10 18.6 NE 13 20 7 11 1012.9 1010.7 0.0
19/02:00pm 36.6 31.4 0.1 10 18.5 SSE 17 24 9 13 1013.3 1011.1 0.0
19/01:30pm 37.1 31.0 0.4 10 18.7 E 22 35 12 19 1013.8 1011.6 0.0
19/01:00pm 36.6 31.0 0.1 10 18.5 ENE 19 39 10 21 1014.3 1012.1 0.0
19/12:30pm 37.7 32.0 -0.6 9 19.3 ENE 19 33 10 18 1014.7 1012.5 0.0
19/12:00pm 36.6 31.0 1.4 11 18.2 NE 20 32 11 17 1015.3 1013.2 0.0
19/11:30am 35.4 30.5 1.7 12 17.4 NNE 17 26 9 14 1015.8 1013.7 0.0
19/11:00am 34.8 30.1 1.2 12 17.1 NNE 15 24 8 13 1016.4 1014.2 0.0
19/10:30am 33.8 29.0 0.5 12 16.7 NE 15 24 8 13 1016.7 1014.5 0.0
19/10:00am 32.6 27.2 -1.7 11 16.4 NE 17 26 9 14 1017.0 1014.8 0.0
19/09:30am 31.8 27.2 -1.1 12 15.8 ENE 13 20 7 11 1017.0 1014.8 0.0
19/09:00am 29.4 24.8 -0.9 14 14.4 E 13 20 7 11 1016.7 1014.5 0.0
19/08:30am 25.8 22.4 1.8 21 11.6 SE 9 11 5 6 1016.7 1014.5 0.0
19/08:00am 22.7 19.5 3.3 28 9.5 SE 9 11 5 6 1016.5 1014.3 0.0
19/07:30am 19.2 16.9 3.0 34 7.7 S 4 9 2 5 1016.3 1014.1 0.0
19/07:00am 16.0 14.6 3.8 44 5.7 CALM 0 0 0 0 1016.0 1013.9 0.0
19/06:30am 14.7 13.1 2.6 44 5.5 CALM 0 0 0 0 1015.7 1013.6 0.0
19/06:00am 14.9 13.3 2.4 43 5.6 CALM 0 0 0 0 1015.4 1013.3 0.0
19/05:30am 16.3 13.3 2.3 39 6.4 NW 7 9 4 5 1014.9 1012.7 0.0
19/05:00am 14.8 13.0 1.0 39 6.1 CALM 0 0 0 0 1014.6 1012.4 0.0
19/04:30am 16.1 14.3 1.4 37 6.6 CALM 0 0 0 0 1014.3 1012.1 0.0
19/04:00am 17.5 14.6 1.5 34 7.3 NNW 6 7 3 4 1014.2 1012.0 0.0
19/03:30am 17.8 16.1 1.7 34 7.3 CALM 0 0 0 0 1014.0 1011.8 0.0
19/03:00am 17.9 14.8 1.4 33 7.5 SSE 7 9 4 5 1013.9 1011.7 0.0
19/02:30am 19.3 16.4 1.3 30 8.3 SE 6 7 3 4 1013.9 1011.7 0.0
19/02:00am 20.7 17.7 2.0 29 8.8 ESE 7 9 4 5 1014.1 1011.9 0.0
19/01:30am 20.8 17.4 2.1 29 8.8 ESE 9 11 5 6 1014.3 1012.1 0.0
19/01:00am 20.6 17.2 2.0 29 8.7 ESE 9 9 5 5 1014.4 1012.2 0.0
19/12:30am 21.4 18.2 0.6 25 9.6 ESE 7 11 4 6 1014.7 1012.5 0.0
19/12:00am 23.1 19.4 0.2 22 10.6 ESE 9 11 5 6 1014.8 1012.6 0.0
 
Date/Time
CST
Temp
°C
App
Temp
°C
Dew
Point
Rel
Hum
%
Delta-T
°C
Wind Press
QNH
hPa
Press
MSL
hPa
Rain
since 9 am
mm
Dir
 
Spd
km/h
Gust
km/h
Spd
kts
Gust
kts
18/11:30pm 24.1 20.5 0.4 21 11.1 ENE 9 9 5 5 1014.9 1012.7 0.0
18/11:00pm 25.2 21.2 0.7 20 11.6 E 11 13 6 7 1015.0 1012.9 0.0
18/10:30pm 25.5 21.6 0.9 20 11.7 E 11 13 6 7 1014.9 1012.7 0.0
18/10:00pm 25.9 21.5 0.5 19 12.1 E 13 15 7 8 1014.8 1012.6 0.0
18/09:30pm 26.4 22.0 0.2 18 12.4 E 13 13 7 7 1014.6 1012.4 0.0
18/09:00pm 26.3 22.0 0.9 19 12.2 E 13 15 7 8 1014.5 1012.3 0.0
18/08:30pm 26.7 22.8 -1.2 16 12.9 ESE 9 11 5 6 1014.3 1012.1 0.0
18/08:00pm 28.6 24.3 -1.5 14 14.1 E 11 13 6 7 1014.1 1011.9 0.0
18/07:30pm 30.4 25.8 -1.1 13 15.0 E 13 19 7 10 1013.7 1011.5 0.0
18/07:00pm 31.8 27.0 -2.3 11 16.1 E 13 17 7 9 1013.4 1011.2 0.0
18/06:30pm 33.8 28.3 -5.0 8 17.8 E 15 22 8 12 1012.9 1010.7 0.0
18/06:00pm 35.2 30.2 -4.0 8 18.4 E 13 20 7 11 1012.5 1010.4 0.0
18/05:30pm 36.0 30.5 -5.2 7 19.1 ENE 15 28 8 15 1012.2 1010.1 0.0
18/05:00pm 36.7 31.5 -6.7 6 19.8 ENE 13 20 7 11 1011.9 1009.7 0.0

Other Formats:

Comma delimited format used in spreadsheet applications
http://www.bom.gov.au/fwo/IDD60801/IDD60801.94231.axf

JavaScript Object Notation format (JSON) in row-major order
http://www.bom.gov.au/fwo/IDD60801/IDD60801.94231.json